Time;durP1;ratioP1;P1;durP2;ratioP2;P2;SDS_P1;SDS_P2;PMS_P1;PMS_P2;Temp;Humidity;BMP_temperature;BMP_pressure;BME280_temperature;BME280_humidity;BME280_pressure;Samples;Min_cycle;Max_cycle;Signal;HPM_P1;HPM_P2
2024/02/28 00:00:42;;;;;;;;;;;;;;;;;;137695;1270;22477;-84
2024/02/28 00:04:03;;;;;;;;;;;;;;;;;;137218;1271;22497;-81
2024/02/28 00:07:05;;;;;;;;;;;;;;;;;;137248;1270;22933;-84
2024/02/28 00:10:06;;;;;;;;;;;;;;;;;;137419;1270;25223;-85
2024/02/28 00:13:07;;;;;;;;;;;;;;;;;;137479;1270;22640;-84
2024/02/28 00:16:08;;;;;;;;;;;;;;;;;;137162;1270;22525;-84
2024/02/28 00:19:11;;;;;;;;;;;;;;;;;;137257;1271;22587;-84
2024/02/28 00:22:12;;;;;;;;;;;;;;;;;;137727;1270;22485;-84
2024/02/28 00:25:14;;;;;;;;;;;;;;;;;;137221;1270;22513;-83
2024/02/28 00:28:15;;;;;;;;;;;;;;;;;;137379;1270;22539;-84
2024/02/28 00:31:16;;;;;;;;;;;;;;;;;;137786;1270;24238;-84
2024/02/28 00:34:18;;;;;;;;;;;;;;;;;;136462;1270;22561;-84
2024/02/28 00:37:19;;;;;;;;;;;;;;;;;;137238;1270;22565;-83
2024/02/28 00:40:20;;;;;;;;;;;;;;;;;;137324;1270;22508;-83
2024/02/28 00:43:21;;;;;;;;;;;;;;;;;;137683;1270;22530;-84
2024/02/28 00:46:23;;;;;;;;;;;;;;;;;;137415;1270;22512;-85
2024/02/28 00:49:24;;;;;;;;;;;;;;;;;;137209;1270;22497;-83
2024/02/28 00:52:27;;;;;;;;;;;;;;;;;;137416;1270;22514;-83
2024/02/28 00:55:28;;;;;;;;;;;;;;;;;;137573;1270;22950;-82
2024/02/28 00:58:30;;;;;;;;;;;;;;;;;;137068;1270;22619;-83
2024/02/28 01:01:31;;;;;;;;;;;;;;;;;;137215;1270;22535;-82
2024/02/28 01:04:32;;;;;;;;;;;;;;;;;;137767;1270;22520;-82
2024/02/28 01:07:34;;;;;;;;;;;;;;;;;;137100;1270;22596;-82
2024/02/28 01:10:36;;;;;;;;;;;;;;;;;;137053;1270;22531;-82
2024/02/28 01:13:37;;;;;;;;;;;;;;;;;;137836;1266;22984;-83
2024/02/28 01:16:38;;;;;;;;;;;;;;;;;;137055;1270;22537;-82
2024/02/28 01:19:39;;;;;;;;;;;;;;;;;;137305;1270;22589;-83
2024/02/28 01:22:41;;;;;;;;;;;;;;;;;;137526;1270;22551;-83
2024/02/28 01:25:42;;;;;;;;;;;;;;;;;;137508;1270;22490;-82
2024/02/28 01:28:43;;;;;;;;;;;;;;;;;;137245;1270;22597;-83
2024/02/28 01:31:44;;;;;;;;;;;;;;;;;;137593;1270;22535;-84
2024/02/28 01:34:45;;;;;;;;;;;;;;;;;;137687;1270;22513;-83
2024/02/28 01:37:47;;;;;;;;;;;;;;;;;;137340;1270;22491;-83
2024/02/28 01:40:48;;;;;;;;;;;;;;;;;;137352;1270;22544;-83
2024/02/28 01:43:49;;;;;;;;;;;;;;;;;;137711;1270;23027;-82
2024/02/28 01:46:50;;;;;;;;;;;;;;;;;;137143;1270;22533;-83
2024/02/28 01:49:53;;;;;;;;;;;;;;;;;;137162;1270;22549;-85
2024/02/28 01:52:54;;;;;;;;;;;;;;;;;;137853;1270;22514;-84
2024/02/28 01:55:56;;;;;;;;;;;;;;;;;;137478;1270;22514;-82
2024/02/28 01:58:58;;;;;;;;;;;;;;;;;;137645;1270;22529;-83
2024/02/28 02:02:00;;;;;;;;;;;;;;;;;;137486;1266;22521;-86
2024/02/28 02:05:03;;;;;;;;;;;;;;;;;;137277;1270;22511;-83
2024/02/28 02:08:07;;;;;;;;;;;;;;;;;;137165;1270;22530;-83
2024/02/28 02:11:08;;;;;;;;;;;;;;;;;;137408;1270;22538;-81
2024/02/28 02:14:10;;;;;;;;;;;;;;;;;;137732;1270;22618;-86
2024/02/28 02:17:11;;;;;;;;;;;;;;;;;;137225;1270;22562;-85
2024/02/28 02:20:12;;;;;;;;;;;;;;;;;;137102;1266;22871;-81
2024/02/28 02:23:13;;;;;;;;;;;;;;;;;;137776;1270;22527;-85
2024/02/28 02:26:14;;;;;;;;;;;;;;;;;;137184;1270;22521;-84
2024/02/28 02:29:15;;;;;;;;;;;;;;;;;;137107;1270;23011;-81
2024/02/28 02:32:16;;;;;;;;;;;;;;;;;;137733;1270;22511;-82
2024/02/28 02:35:19;;;;;;;;;;;;;;;;;;137217;1270;22948;-83
2024/02/28 02:38:20;;;;;;;;;;;;;;;;;;137182;1270;22935;-84
2024/02/28 02:41:21;;;;;;;;;;;;;;;;;;137590;1266;22486;-84
2024/02/28 02:44:23;;;;;;;;;;;;;;;;;;137406;1270;22552;-83
2024/02/28 02:47:24;;;;;;;;;;;;;;;;;;137172;1270;23078;-81
2024/02/28 02:50:25;;;;;;;;;;;;;;;;;;137357;1270;22529;-87
2024/02/28 02:53:26;;;;;;;;;;;;;;;;;;137777;1270;22792;-83
2024/02/28 02:56:27;;;;;;;;;;;;;;;;;;137138;1270;22529;-83
2024/02/28 02:59:29;;;;;;;;;;;;;;;;;;137196;1270;22924;-85
2024/02/28 03:02:32;;;;;;;;;;;;;;;;;;137847;1270;22539;-82
2024/02/28 03:05:34;;;;;;;;;;;;;;;;;;137223;1270;23065;-83
2024/02/28 03:08:37;;;;;;;;;;;;;;;;;;137249;1270;23382;-85
2024/02/28 03:11:38;;;;;;;;;;;;;;;;;;137587;1270;22511;-78
2024/02/28 03:14:39;;;;;;;;;;;;;;;;;;137469;1270;22509;-84
2024/02/28 03:17:40;;;;;;;;;;;;;;;;;;137181;1270;22507;-83
2024/02/28 03:20:44;;;;;;;;;;;;;;;;;;137610;1270;22507;-83
2024/02/28 03:23:45;;;;;;;;;;;;;;;;;;137782;1270;22567;-81
2024/02/28 03:26:46;;;;;;;;;;;;;;;;;;137645;1270;22536;-80
2024/02/28 03:29:47;;;;;;;;;;;;;;;;;;137420;1270;24192;-80
2024/02/28 03:32:49;;;;;;;;;;;;;;;;;;137956;1259;22289;-81
2024/02/28 03:35:50;;;;;;;;;;;;;;;;;;137359;1270;22915;-82
2024/02/28 03:38:51;;;;;;;;;;;;;;;;;;137435;1270;22902;-82
2024/02/28 03:41:52;;;;;;;;;;;;;;;;;;137705;1270;22508;-82
2024/02/28 03:44:53;;;;;;;;;;;;;;;;;;137526;1270;22614;-82
2024/02/28 03:47:54;;;;;;;;;;;;;;;;;;137312;1270;22992;-81
2024/02/28 03:50:55;;;;;;;;;;;;;;;;;;137491;1270;22535;-82
2024/02/28 03:53:56;;;;;;;;;;;;;;;;;;137603;1270;22491;-82
2024/02/28 03:56:58;;;;;;;;;;;;;;;;;;137359;1270;22501;-81
2024/02/28 04:00:00;;;;;;;;;;;;;;;;;;137344;1270;22466;-81
2024/02/28 04:03:01;;;;;;;;;;;;;;;;;;137848;1270;23426;-80
2024/02/28 04:06:02;;;;;;;;;;;;;;;;;;137307;1267;22494;-82
2024/02/28 04:09:03;;;;;;;;;;;;;;;;;;137049;1270;23255;-80
2024/02/28 04:12:04;;;;;;;;;;;;;;;;;;137879;1270;22943;-81
2024/02/28 04:15:06;;;;;;;;;;;;;;;;;;137279;1270;23001;-81
2024/02/28 04:18:07;;;;;;;;;;;;;;;;;;137253;1270;22523;-81
2024/02/28 04:21:08;;;;;;;;;;;;;;;;;;137615;1270;24715;-84
2024/02/28 04:24:10;;;;;;;;;;;;;;;;;;137473;1270;22551;-82
2024/02/28 04:27:11;;;;;;;;;;;;;;;;;;137263;1270;22523;-84
2024/02/28 04:30:12;;;;;;;;;;;;;;;;;;137298;1270;22507;-82
2024/02/28 04:33:13;;;;;;;;;;;;;;;;;;137752;1270;22535;-81
2024/02/28 04:36:15;;;;;;;;;;;;;;;;;;137302;1270;22505;-83
2024/02/28 04:39:26;;;;;;;;;;;;;;;;;;137210;1270;22538;-84
2024/02/28 04:42:27;;;;;;;;;;;;;;;;;;137801;1270;22482;-85
2024/02/28 04:45:28;;;;;;;;;;;;;;;;;;137283;1270;22521;-84
2024/02/28 04:48:32;;;;;;;;;;;;;;;;;;137327;1270;22549;-84
2024/02/28 04:51:33;;;;;;;;;;;;;;;;;;137697;1270;22536;-85
2024/02/28 04:54:37;;;;;;;;;;;;;;;;;;137642;1270;22487;-84
2024/02/28 04:57:38;;;;;;;;;;;;;;;;;;137857;1262;22843;-83
2024/02/28 05:00:39;;;;;;;;;;;;;;;;;;137827;1270;22452;-83
2024/02/28 05:03:40;;;;;;;;;;;;;;;;;;137791;1270;22407;-84
2024/02/28 05:06:41;;;;;;;;;;;;;;;;;;137796;1270;22362;-84
2024/02/28 05:09:43;;;;;;;;;;;;;;;;;;137834;1270;22287;-84
2024/02/28 05:12:44;;;;;;;;;;;;;;;;;;137841;1270;22418;-85
2024/02/28 05:15:45;;;;;;;;;;;;;;;;;;137719;1270;23404;-84
2024/02/28 05:18:46;;;;;;;;;;;;;;;;;;137694;1270;22555;-84
2024/02/28 05:21:48;;;;;;;;;;;;;;;;;;137733;1270;22524;-84
2024/02/28 05:24:49;;;;;;;;;;;;;;;;;;137802;1270;22297;-83
2024/02/28 05:27:50;;;;;;;;;;;;;;;;;;137835;1259;22293;-85
2024/02/28 05:30:51;;;;;;;;;;;;;;;;;;137773;1270;22405;-84
2024/02/28 05:33:52;;;;;;;;;;;;;;;;;;137776;1270;22343;-84
2024/02/28 05:36:56;;;;;;;;;;;;;;;;;;137790;1270;22318;-84
2024/02/28 05:39:57;;;;;;;;;;;;;;;;;;137818;1262;22281;-83
2024/02/28 05:42:58;;;;;;;;;;;;;;;;;;137797;1270;22267;-82
2024/02/28 05:45:59;;;;;;;;;;;;;;;;;;137805;1270;22267;-84
2024/02/28 05:49:01;;;;;;;;;;;;;;;;;;137785;1264;22818;-83
2024/02/28 05:52:02;;;;;;;;;;;;;;;;;;137773;1270;22320;-82
2024/02/28 05:55:03;;;;;;;;;;;;;;;;;;137780;1270;22336;-84
2024/02/28 05:58:04;;;;;;;;;;;;;;;;;;137814;1270;22287;-84
2024/02/28 06:01:07;;;;;;;;;;;;;;;;;;137799;1266;22844;-84
2024/02/28 06:04:08;;;;;;;;;;;;;;;;;;137793;1270;22344;-84
2024/02/28 06:07:09;;;;;;;;;;;;;;;;;;137789;1270;22330;-83
2024/02/28 06:10:10;;;;;;;;;;;;;;;;;;137797;1270;22260;-82
2024/02/28 06:13:12;;;;;;;;;;;;;;;;;;137773;1270;22301;-85
2024/02/28 06:16:13;;;;;;;;;;;;;;;;;;137530;1270;22491;-83
2024/02/28 06:19:14;;;;;;;;;;;;;;;;;;137639;1270;22537;-84
2024/02/28 06:22:18;;;;;;;;;;;;;;;;;;137816;1270;22496;-81
2024/02/28 06:25:22;;;;;;;;;;;;;;;;;;137076;1270;22520;-81
2024/02/28 06:28:23;;;;;;;;;;;;;;;;;;137201;1270;22594;-82
2024/02/28 06:31:24;;;;;;;;;;;;;;;;;;138038;1270;22406;-79
2024/02/28 06:34:25;;;;;;;;;;;;;;;;;;137699;1270;22556;-80
2024/02/28 06:37:26;;;;;;;;;;;;;;;;;;137414;1270;22545;-80
2024/02/28 06:40:28;;;;;;;;;;;;;;;;;;137617;1270;22469;-80
2024/02/28 06:43:29;;;;;;;;;;;;;;;;;;138012;1270;22343;-79
2024/02/28 06:46:30;;;;;;;;;;;;;;;;;;138002;1270;22324;-78
2024/02/28 06:49:32;;;;;;;;;;;;;;;;;;137913;1270;22266;-79
2024/02/28 06:52:33;;;;;;;;;;;;;;;;;;137810;1270;22311;-80
2024/02/28 06:55:34;;;;;;;;;;;;;;;;;;137816;1270;22336;-81
2024/02/28 06:58:35;;;;;;;;;;;;;;;;;;137787;1262;22319;-79
2024/02/28 07:01:36;;;;;;;;;;;;;;;;;;137754;1259;22385;-77
2024/02/28 07:04:37;;;;;;;;;;;;;;;;;;137778;1270;22403;-78
2024/02/28 07:07:39;;;;;;;;;;;;;;;;;;137804;1270;22405;-79
2024/02/28 07:10:43;;;;;;;;;;;;;;;;;;137787;1270;22309;-79
2024/02/28 07:13:44;;;;;;;;;;;;;;;;;;137784;1270;22369;-80
2024/02/28 07:16:45;;;;;;;;;;;;;;;;;;137809;1260;22265;-78
2024/02/28 07:19:46;;;;;;;;;;;;;;;;;;137855;1270;22340;-77
2024/02/28 07:22:47;;;;;;;;;;;;;;;;;;137832;1270;22746;-77
2024/02/28 07:25:48;;;;;;;;;;;;;;;;;;137859;1270;22271;-79
2024/02/28 07:28:50;;;;;;;;;;;;;;;;;;137880;1270;22423;-80
2024/02/28 07:31:51;;;;;;;;;;;;;;;;;;137830;1270;22410;-80
2024/02/28 07:34:52;;;;;;;;;;;;;;;;;;137852;1270;22296;-79
2024/02/28 07:37:53;;;;;;;;;;;;;;;;;;137898;1270;22283;-81
2024/02/28 07:40:54;;;;;;;;;;;;;;;;;;137842;1270;22497;-82
2024/02/28 07:43:55;;;;;;;;;;;;;;;;;;137821;1270;22808;-80
2024/02/28 07:46:56;;;;;;;;;;;;;;;;;;137837;1270;22344;-77
2024/02/28 07:49:58;;;;;;;;;;;;;;;;;;137837;1270;22877;-78
2024/02/28 07:52:59;;;;;;;;;;;;;;;;;;137828;1270;22340;-78
2024/02/28 07:56:00;;;;;;;;;;;;;;;;;;137841;1270;22770;-79
2024/02/28 07:59:01;;;;;;;;;;;;;;;;;;137839;1259;22403;-78
2024/02/28 08:02:02;;;;;;;;;;;;;;;;;;137846;1270;22320;-79
2024/02/28 08:05:03;;;;;;;;;;;;;;;;;;137905;1270;22336;-78
2024/02/28 08:08:05;;;;;;;;;;;;;;;;;;137849;1270;22414;-79
2024/02/28 08:11:06;;;;;;;;;;;;;;;;;;137827;1270;22323;-78
2024/02/28 08:14:07;;;;;;;;;;;;;;;;;;137824;1270;23198;-77
2024/02/28 08:17:08;;;;;;;;;;;;;;;;;;137834;1270;22305;-76
2024/02/28 08:20:09;;;;;;;;;;;;;;;;;;137841;1270;22308;-79
2024/02/28 08:23:10;;;;;;;;;;;;;;;;;;137844;1270;22379;-77
2024/02/28 08:26:12;;;;;;;;;;;;;;;;;;137834;1270;22330;-80
2024/02/28 08:29:13;;;;;;;;;;;;;;;;;;137860;1270;22361;-79
2024/02/28 08:32:14;;;;;;;;;;;;;;;;;;137827;1270;22323;-79
2024/02/28 08:35:15;;;;;;;;;;;;;;;;;;137884;1270;22346;-79
2024/02/28 08:38:16;;;;;;;;;;;;;;;;;;137876;1270;22306;-79
2024/02/28 08:41:18;;;;;;;;;;;;;;;;;;137802;1270;22355;-78
2024/02/28 08:44:20;;;;;;;;;;;;;;;;;;137830;1270;22340;-79
2024/02/28 08:47:21;;;;;;;;;;;;;;;;;;137818;1270;22739;-78
2024/02/28 08:50:22;;;;;;;;;;;;;;;;;;137891;1270;22355;-78
2024/02/28 08:53:23;;;;;;;;;;;;;;;;;;137875;1270;22289;-79
2024/02/28 08:56:24;;;;;;;;;;;;;;;;;;137837;1270;23178;-79
2024/02/28 08:59:28;;;;;;;;;;;;;;;;;;137813;1270;22425;-78
2024/02/28 09:02:29;;;;;;;;;;;;;;;;;;137791;1270;22349;-78
2024/02/28 09:05:30;;;;;;;;;;;;;;;;;;137870;1270;22299;-81
2024/02/28 09:08:34;;;;;;;;;;;;;;;;;;137774;1270;22305;-77
2024/02/28 09:11:35;;;;;;;;;;;;;;;;;;137757;1266;22921;-77
2024/02/28 09:14:36;;;;;;;;;;;;;;;;;;137795;1271;22329;-78
2024/02/28 09:17:37;;;;;;;;;;;;;;;;;;137802;1267;23043;-78
2024/02/28 09:20:38;;;;;;;;;;;;;;;;;;137792;1271;22342;-77
2024/02/28 09:23:40;;;;;;;;;;;;;;;;;;137811;1270;22292;-79
2024/02/28 09:26:41;;;;;;;;;;;;;;;;;;137619;1270;22501;-78
2024/02/28 09:29:42;;;;;;;;;;;;;;;;;;137840;1270;22384;-78
2024/02/28 09:32:43;;;;;;;;;;;;;;;;;;137767;1270;22420;-77
2024/02/28 09:35:45;;;;;;;;;;;;;;;;;;137819;1270;22338;-80
2024/02/28 09:38:46;;;;;;;;;;;;;;;;;;137833;1270;22304;-79
2024/02/28 09:41:48;;;;;;;;;;;;;;;;;;137604;1270;277713;-77
2024/02/28 09:44:49;;;;;;;;;;;;;;;;;;136795;1270;22508;-78
2024/02/28 09:47:51;;;;;;;;;;;;;;;;;;137291;1271;22514;-79
2024/02/28 09:50:52;;;;;;;;;;;;;;;;;;137667;1270;22576;-78
2024/02/28 09:53:53;;;;;;;;;;;;;;;;;;137957;1270;22317;-79
2024/02/28 09:56:54;;;;;;;;;;;;;;;;;;137442;1270;24155;-76
2024/02/28 09:59:55;;;;;;;;;;;;;;;;;;137931;1270;22408;-78
2024/02/28 10:02:56;;;;;;;;;;;;;;;;;;137972;1270;22334;-78
2024/02/28 10:05:58;;;;;;;;;;;;;;;;;;137880;1270;22382;-77
2024/02/28 10:08:59;;;;;;;;;;;;;;;;;;137877;1270;22403;-77
2024/02/28 10:12:00;;;;;;;;;;;;;;;;;;137780;1270;22271;-77
2024/02/28 10:15:01;;;;;;;;;;;;;;;;;;137904;1270;22332;-79
2024/02/28 10:18:02;;;;;;;;;;;;;;;;;;137871;1270;22345;-78
2024/02/28 10:21:03;;;;;;;;;;;;;;;;;;137908;1270;22300;-78
2024/02/28 10:24:05;;;;;;;;;;;;;;;;;;137889;1271;22325;-80
2024/02/28 10:27:06;;;;;;;;;;;;;;;;;;137949;1270;22313;-78
2024/02/28 10:30:07;;;;;;;;;;;;;;;;;;137942;1270;22389;-79
2024/02/28 10:33:08;;;;;;;;;;;;;;;;;;137665;1270;22469;-78
2024/02/28 10:36:09;;;;;;;;;;;;;;;;;;137929;1265;22319;-78
2024/02/28 10:39:10;;;;;;;;;;;;;;;;;;137945;1270;22329;-79
2024/02/28 10:42:11;;;;;;;;;;;;;;;;;;137933;1270;22343;-78
2024/02/28 10:45:12;;;;;;;;;;;;;;;;;;137892;1270;22347;-79
2024/02/28 10:48:14;;;;;;;;;;;;;;;;;;137902;1270;22304;-78
2024/02/28 10:51:15;;;;;;;;;;;;;;;;;;137901;1270;22324;-78
2024/02/28 10:54:16;;;;;;;;;;;;;;;;;;137899;1271;22762;-78
2024/02/28 10:57:17;;;;;;;;;;;;;;;;;;137926;1270;22328;-79
2024/02/28 11:00:18;;;;;;;;;;;;;;;;;;137847;1270;22418;-79
2024/02/28 11:03:19;;;;;;;;;;;;;;;;;;137863;1266;22327;-79
2024/02/28 11:06:21;;;;;;;;;;;;;;;;;;137908;1271;22324;-77
2024/02/28 11:09:22;;;;;;;;;;;;;;;;;;137890;1270;22940;-77
2024/02/28 11:12:23;;;;;;;;;;;;;;;;;;137890;1270;22339;-79
2024/02/28 11:15:24;;;;;;;;;;;;;;;;;;137923;1271;22329;-78
2024/02/28 11:18:26;;;;;;;;;;;;;;;;;;137882;1265;22292;-78
2024/02/28 11:21:29;;;;;;;;;;;;;;;;;;137886;1271;22328;-79
2024/02/28 11:24:31;;;;;;;;;;;;;;;;;;137882;1271;22337;-80
2024/02/28 11:27:32;;;;;;;;;;;;;;;;;;137846;1270;22338;-78
2024/02/28 11:30:33;;;;;;;;;;;;;;;;;;137843;1270;22409;-77
2024/02/28 11:33:34;;;;;;;;;;;;;;;;;;137887;1271;22337;-77
2024/02/28 11:36:36;;;;;;;;;;;;;;;;;;137820;1270;22312;-78
2024/02/28 11:39:37;;;;;;;;;;;;;;;;;;137830;1270;22376;-78
2024/02/28 11:42:39;;;;;;;;;;;;;;;;;;137880;1271;22338;-78
2024/02/28 11:45:43;;;;;;;;;;;;;;;;;;137834;1270;22341;-77
2024/02/28 11:48:44;;;;;;;;;;;;;;;;;;137857;1271;22252;-79
2024/02/28 11:51:45;;;;;;;;;;;;;;;;;;137877;1270;22317;-76
2024/02/28 11:54:46;;;;;;;;;;;;;;;;;;137885;1271;22420;-79
2024/02/28 11:57:47;;;;;;;;;;;;;;;;;;137888;1270;22324;-79
2024/02/28 12:00:49;;;;;;;;;;;;;;;;;;137856;1270;22416;-79
2024/02/28 12:03:50;;;;;;;;;;;;;;;;;;137901;1270;22327;-78
2024/02/28 12:06:51;;;;;;;;;;;;;;;;;;137889;1259;22417;-77
2024/02/28 12:09:52;;;;;;;;;;;;;;;;;;137861;1270;22405;-78
2024/02/28 12:12:53;;;;;;;;;;;;;;;;;;137861;1271;22315;-79
2024/02/28 12:15:54;;;;;;;;;;;;;;;;;;137909;1259;22280;-78
2024/02/28 12:18:55;;;;;;;;;;;;;;;;;;137877;1270;22469;-77
2024/02/28 12:21:57;;;;;;;;;;;;;;;;;;137906;1260;22277;-79
2024/02/28 12:25:00;;;;;;;;;;;;;;;;;;137868;1270;22327;-78
2024/02/28 12:28:02;;;;;;;;;;;;;;;;;;137820;1259;22258;-79
2024/02/28 12:31:04;;;;;;;;;;;;;;;;;;137824;1270;22387;-78
2024/02/28 12:34:06;;;;;;;;;;;;;;;;;;137814;1270;22339;-77
2024/02/28 12:37:08;;;;;;;;;;;;;;;;;;137811;1270;22292;-77
2024/02/28 12:40:09;;;;;;;;;;;;;;;;;;137848;1270;22875;-78
2024/02/28 12:43:11;;;;;;;;;;;;;;;;;;137853;1270;22349;-77
2024/02/28 12:46:12;;;;;;;;;;;;;;;;;;137168;1271;24161;-76
2024/02/28 12:49:13;;;;;;;;;;;;;;;;;;137797;1262;22504;-76
2024/02/28 12:52:14;;;;;;;;;;;;;;;;;;137803;1271;22368;-77
2024/02/28 12:55:16;;;;;;;;;;;;;;;;;;137788;1270;22261;-76
2024/02/28 12:58:17;;;;;;;;;;;;;;;;;;137758;1270;22322;-77
2024/02/28 13:01:18;;;;;;;;;;;;;;;;;;137786;1270;22424;-76
2024/02/28 13:04:19;;;;;;;;;;;;;;;;;;137808;1270;23012;-77
2024/02/28 13:07:22;;;;;;;;;;;;;;;;;;137821;1270;22284;-77
2024/02/28 13:10:23;;;;;;;;;;;;;;;;;;137829;1271;22314;-79
2024/02/28 13:13:24;;;;;;;;;;;;;;;;;;136490;1270;22551;-80
2024/02/28 13:16:26;;;;;;;;;;;;;;;;;;137325;1271;24934;-77
2024/02/28 13:19:27;;;;;;;;;;;;;;;;;;137647;1270;22544;-77
2024/02/28 13:22:28;;;;;;;;;;;;;;;;;;137493;1270;22493;-76
2024/02/28 13:25:29;;;;;;;;;;;;;;;;;;137924;1271;22330;-77
2024/02/28 13:28:30;;;;;;;;;;;;;;;;;;137890;1271;22401;-77
2024/02/28 13:31:31;;;;;;;;;;;;;;;;;;137502;1270;22496;-76
2024/02/28 13:34:32;;;;;;;;;;;;;;;;;;137389;1271;22541;-77
2024/02/28 13:37:34;;;;;;;;;;;;;;;;;;137810;1270;22366;-78
2024/02/28 13:40:35;;;;;;;;;;;;;;;;;;137903;1271;22327;-77
2024/02/28 13:43:36;;;;;;;;;;;;;;;;;;137821;1270;22298;-78
2024/02/28 13:46:39;;;;;;;;;;;;;;;;;;137752;1270;22257;-77
2024/02/28 13:49:40;;;;;;;;;;;;;;;;;;137734;1268;22905;-77
2024/02/28 13:52:41;;;;;;;;;;;;;;;;;;137768;1270;22342;-78
2024/02/28 13:55:42;;;;;;;;;;;;;;;;;;137759;1270;22261;-78
2024/02/28 13:58:44;;;;;;;;;;;;;;;;;;137752;1270;22279;-77
2024/02/28 14:01:45;;;;;;;;;;;;;;;;;;137742;1271;22298;-77
2024/02/28 14:04:48;;;;;;;;;;;;;;;;;;137722;1268;22313;-78
2024/02/28 14:07:49;;;;;;;;;;;;;;;;;;137735;1271;22279;-77
2024/02/28 14:10:50;;;;;;;;;;;;;;;;;;137760;1270;22356;-78
2024/02/28 14:13:52;;;;;;;;;;;;;;;;;;137764;1268;22296;-77
2024/02/28 14:16:53;;;;;;;;;;;;;;;;;;137812;1268;22249;-78
2024/02/28 14:19:54;;;;;;;;;;;;;;;;;;137731;1270;22844;-76
2024/02/28 14:22:56;;;;;;;;;;;;;;;;;;137696;1270;22287;-77
2024/02/28 14:25:57;;;;;;;;;;;;;;;;;;137729;1271;22336;-77
2024/02/28 14:28:58;;;;;;;;;;;;;;;;;;137756;1270;22721;-78
2024/02/28 14:32:00;;;;;;;;;;;;;;;;;;137771;1270;22304;-77
2024/02/28 14:35:01;;;;;;;;;;;;;;;;;;137779;1271;22892;-78
2024/02/28 14:38:03;;;;;;;;;;;;;;;;;;137820;1270;22366;-79
2024/02/28 14:41:04;;;;;;;;;;;;;;;;;;137815;1271;22327;-76
2024/02/28 14:44:05;;;;;;;;;;;;;;;;;;137818;1271;22772;-78
2024/02/28 14:47:06;;;;;;;;;;;;;;;;;;137813;1270;22317;-78
2024/02/28 14:50:09;;;;;;;;;;;;;;;;;;137779;1271;23118;-78
2024/02/28 14:53:10;;;;;;;;;;;;;;;;;;137805;1271;22324;-78
2024/02/28 14:56:11;;;;;;;;;;;;;;;;;;137815;1271;22310;-79
2024/02/28 14:59:13;;;;;;;;;;;;;;;;;;137800;1271;22370;-77
2024/02/28 15:02:14;;;;;;;;;;;;;;;;;;137839;1270;22724;-79
2024/02/28 15:05:15;;;;;;;;;;;;;;;;;;137865;1270;22315;-79
2024/02/28 15:08:16;;;;;;;;;;;;;;;;;;137836;1271;22348;-79
2024/02/28 15:11:18;;;;;;;;;;;;;;;;;;137870;1270;22327;-79
2024/02/28 15:14:20;;;;;;;;;;;;;;;;;;137877;1271;22324;-79
2024/02/28 15:17:21;;;;;;;;;;;;;;;;;;137829;1270;22441;-78
2024/02/28 15:20:23;;;;;;;;;;;;;;;;;;137848;1271;22310;-81
2024/02/28 15:23:24;;;;;;;;;;;;;;;;;;137180;1270;22621;-79
2024/02/28 15:26:25;;;;;;;;;;;;;;;;;;137586;1270;25876;-79
2024/02/28 15:29:28;;;;;;;;;;;;;;;;;;137363;1270;23116;-78
2024/02/28 15:32:29;;;;;;;;;;;;;;;;;;137884;1270;23009;-78
2024/02/28 15:35:30;;;;;;;;;;;;;;;;;;137894;1270;22298;-79
2024/02/28 15:38:31;;;;;;;;;;;;;;;;;;137883;1270;22318;-80
2024/02/28 15:41:33;;;;;;;;;;;;;;;;;;137844;1271;22804;-79
2024/02/28 15:44:34;;;;;;;;;;;;;;;;;;137874;1271;22758;-78
2024/02/28 15:47:36;;;;;;;;;;;;;;;;;;137703;1270;22508;-79
2024/02/28 15:50:37;;;;;;;;;;;;;;;;;;137103;1270;22491;-79
2024/02/28 15:53:38;;;;;;;;;;;;;;;;;;137255;1270;23003;-79
2024/02/28 15:56:40;;;;;;;;;;;;;;;;;;137892;1270;22821;-78
2024/02/28 15:59:41;;;;;;;;;;;;;;;;;;137843;1270;22402;-78
2024/02/28 16:02:42;;;;;;;;;;;;;;;;;;137508;1270;22507;-78
2024/02/28 16:05:43;;;;;;;;;;;;;;;;;;137487;1264;22520;-80
2024/02/28 16:08:44;;;;;;;;;;;;;;;;;;137499;1270;22523;-79
2024/02/28 16:11:45;;;;;;;;;;;;;;;;;;137150;1271;22509;-79
2024/02/28 16:14:46;;;;;;;;;;;;;;;;;;137335;1270;22585;-79
2024/02/28 16:17:47;;;;;;;;;;;;;;;;;;137829;1270;22957;-79
2024/02/28 16:20:48;;;;;;;;;;;;;;;;;;137167;1271;22481;-80
2024/02/28 16:23:50;;;;;;;;;;;;;;;;;;137817;1270;22538;-79
2024/02/28 16:26:51;;;;;;;;;;;;;;;;;;137827;1270;22747;-78
2024/02/28 16:29:52;;;;;;;;;;;;;;;;;;137883;1270;22404;-79
2024/02/28 16:32:53;;;;;;;;;;;;;;;;;;137794;1270;22571;-79
2024/02/28 16:35:54;;;;;;;;;;;;;;;;;;137764;1270;22582;-78
2024/02/28 16:38:58;;;;;;;;;;;;;;;;;;137404;1270;22505;-78
2024/02/28 16:41:59;;;;;;;;;;;;;;;;;;137067;1270;22521;-79
2024/02/28 16:45:03;;;;;;;;;;;;;;;;;;137426;1271;22563;-79
2024/02/28 16:48:04;;;;;;;;;;;;;;;;;;137653;1270;22484;-80
2024/02/28 16:51:05;;;;;;;;;;;;;;;;;;137151;1270;22487;-79
2024/02/28 16:54:06;;;;;;;;;;;;;;;;;;137113;1270;22638;-78
2024/02/28 16:57:07;;;;;;;;;;;;;;;;;;137829;1270;22482;-78
2024/02/28 17:00:09;;;;;;;;;;;;;;;;;;137226;1271;22494;-79
2024/02/28 17:03:10;;;;;;;;;;;;;;;;;;137295;1270;22507;-80
2024/02/28 17:06:11;;;;;;;;;;;;;;;;;;137855;1270;22523;-79
2024/02/28 17:09:12;;;;;;;;;;;;;;;;;;137489;1270;22489;-79
2024/02/28 17:12:14;;;;;;;;;;;;;;;;;;137941;1270;22349;-77
2024/02/28 17:15:16;;;;;;;;;;;;;;;;;;137854;1270;22527;-80
2024/02/28 17:18:17;;;;;;;;;;;;;;;;;;137555;1270;22484;-78
2024/02/28 17:21:19;;;;;;;;;;;;;;;;;;137917;1270;22330;-80
2024/02/28 17:24:20;;;;;;;;;;;;;;;;;;137640;1270;22540;-79
2024/02/28 17:27:22;;;;;;;;;;;;;;;;;;137535;1270;22529;-77
2024/02/28 17:30:23;;;;;;;;;;;;;;;;;;137160;1270;22625;-79
2024/02/28 17:33:25;;;;;;;;;;;;;;;;;;137054;1270;23322;-79
2024/02/28 17:36:27;;;;;;;;;;;;;;;;;;137788;1270;22525;-78
2024/02/28 17:39:28;;;;;;;;;;;;;;;;;;137190;1267;22540;-78
2024/02/28 17:42:30;;;;;;;;;;;;;;;;;;137175;1270;23123;-79
2024/02/28 17:45:35;;;;;;;;;;;;;;;;;;137494;1270;25210;-79
2024/02/28 17:48:38;;;;;;;;;;;;;;;;;;137430;1270;22514;-80
2024/02/28 17:51:42;;;;;;;;;;;;;;;;;;137234;1270;22523;-79
2024/02/28 17:54:43;;;;;;;;;;;;;;;;;;137281;1270;22535;-79
2024/02/28 17:57:45;;;;;;;;;;;;;;;;;;137673;1270;22472;-79
2024/02/28 18:00:47;;;;;;;;;;;;;;;;;;137469;1270;22489;-78
2024/02/28 18:03:48;;;;;;;;;;;;;;;;;;137144;1270;22592;-79
2024/02/28 18:06:50;;;;;;;;;;;;;;;;;;137856;1270;22309;-79
2024/02/28 18:09:51;;;;;;;;;;;;;;;;;;137823;1270;22332;-77
2024/02/28 18:12:52;;;;;;;;;;;;;;;;;;137525;1270;22485;-78
2024/02/28 18:15:53;;;;;;;;;;;;;;;;;;137862;1270;22274;-77
2024/02/28 18:18:54;;;;;;;;;;;;;;;;;;137887;1270;22288;-77
2024/02/28 18:21:56;;;;;;;;;;;;;;;;;;137603;1270;22484;-78
2024/02/28 18:24:59;;;;;;;;;;;;;;;;;;137714;1270;22569;-76
2024/02/28 18:28:00;;;;;;;;;;;;;;;;;;137437;1270;22906;-78
2024/02/28 18:31:01;;;;;;;;;;;;;;;;;;137842;1270;22390;-78
2024/02/28 18:34:03;;;;;;;;;;;;;;;;;;137283;1270;22514;-77
2024/02/28 18:37:04;;;;;;;;;;;;;;;;;;137699;1270;22517;-78
2024/02/28 18:40:12;;;;;;;;;;;;;;;;;;137099;1270;22534;-74
2024/02/28 18:43:17;;;;;;;;;;;;;;;;;;137065;1270;22568;-75
2024/02/28 18:46:18;;;;;;;;;;;;;;;;;;137821;1270;22547;-75
2024/02/28 18:49:20;;;;;;;;;;;;;;;;;;137225;1264;22516;-75
2024/02/28 18:52:21;;;;;;;;;;;;;;;;;;137119;1270;22564;-75
2024/02/28 18:55:25;;;;;;;;;;;;;;;;;;137468;1270;22507;-78
2024/02/28 18:58:26;;;;;;;;;;;;;;;;;;137529;1266;22598;-78
2024/02/28 19:01:27;;;;;;;;;;;;;;;;;;137106;1270;22484;-77
2024/02/28 19:04:28;;;;;;;;;;;;;;;;;;137879;1270;22844;-77
2024/02/28 19:07:29;;;;;;;;;;;;;;;;;;137870;1270;22724;-77
2024/02/28 19:10:30;;;;;;;;;;;;;;;;;;137831;1270;22922;-78
2024/02/28 19:13:33;;;;;;;;;;;;;;;;;;137842;1270;22292;-78
2024/02/28 19:16:34;;;;;;;;;;;;;;;;;;137830;1270;22338;-77
2024/02/28 19:19:35;;;;;;;;;;;;;;;;;;137905;1270;22303;-78
2024/02/28 19:22:39;;;;;;;;;;;;;;;;;;137880;1270;22747;-77
2024/02/28 19:25:40;;;;;;;;;;;;;;;;;;137852;1270;22277;-79
2024/02/28 19:28:43;;;;;;;;;;;;;;;;;;137844;1270;22976;-78
2024/02/28 19:31:45;;;;;;;;;;;;;;;;;;137869;1270;22274;-79
2024/02/28 19:34:46;;;;;;;;;;;;;;;;;;137282;1270;22515;-79
2024/02/28 19:37:52;;;;;;;;;;;;;;;;;;137466;1270;22631;-78
2024/02/28 19:40:53;;;;;;;;;;;;;;;;;;137087;1270;22522;-78
2024/02/28 19:43:54;;;;;;;;;;;;;;;;;;136974;1270;22520;-77
2024/02/28 19:46:55;;;;;;;;;;;;;;;;;;137785;1270;22524;-77
2024/02/28 19:49:59;;;;;;;;;;;;;;;;;;137152;1270;22898;-78
2024/02/28 19:53:00;;;;;;;;;;;;;;;;;;137183;1270;22513;-78
2024/02/28 19:56:01;;;;;;;;;;;;;;;;;;137691;1270;22517;-77
2024/02/28 19:59:03;;;;;;;;;;;;;;;;;;137336;1270;22871;-76
2024/02/28 20:02:06;;;;;;;;;;;;;;;;;;137107;1270;22805;-79
2024/02/28 20:05:09;;;;;;;;;;;;;;;;;;137421;1270;22522;-79
2024/02/28 20:08:10;;;;;;;;;;;;;;;;;;137541;1270;22513;-78
2024/02/28 20:11:11;;;;;;;;;;;;;;;;;;137307;1270;22512;-79
2024/02/28 20:14:13;;;;;;;;;;;;;;;;;;137060;1270;22570;-78
2024/02/28 20:17:14;;;;;;;;;;;;;;;;;;137511;1270;22515;-79